To NAV CANADA Home Page Login to a new session Search on AWWS site Feedback and Comments Disclaimer Vers la page française équivalente Tips FAQ What's new on the site To the Forecasts and Observations / NOTAM section To "File a Flight Plan" website Publications and other links Update of the User's profile FIC Telephone Numbers My Weather Data Folder Route Weather Data Regional Weather Data Local Weather Data To the Forecasts and Observations / NOTAM section
Request Generated 03/02/2015 at 00:53:14 UTC . Weather information available at that time is displayed.

METAR/TAF

KELOWNA/BC    (show WxCam)

METAR CYLW 020000Z AUTO 35006KT 9SM SCT095 BKN140 05/M06 A2999 RMK
SLP173=
METAR CYLW 012300Z AUTO VRB02KT 9SM SCT090 06/M09 A3001 RMK SLP181=
METAR CYLW 012200Z AUTO 00000KT 9SM FEW085 05/M10 A3004 RMK SLP191=

TAF CYLW 020038Z 0201/0213 VRB03KT P6SM BKN120
FM020900 VRB03KT P6SM SCT030 BKN070 TEMPO 0209/0213 4SM -SHSN BR
BKN030
RMK FCST BASED ON AUTO OBS. NXT FCST BY 020700Z=
Your time UTC time
Weather data provided by Environment Canada and NAV CANADA